Time;durP1;ratioP1;P1;durP2;ratioP2;P2;SDS_P1;SDS_P2;PMS_P1;PMS_P2;Temp;Humidity;BMP_temperature;BMP_pressure;BME280_temperature;BME280_humidity;BME280_pressure;Samples;Min_cycle;Max_cycle;Signal;HPM_P1;HPM_P2
2020/12/08 00:00:45;;;;;;;25.80;14.48;;;3.60;99.90;;;;;;2112649;28;20110;-75
2020/12/08 00:01:45;;;;;;;25.90;13.18;;;3.60;99.90;;;;;;2112287;28;20032;-79
2020/12/08 00:02:46;;;;;;;33.72;16.88;;;3.60;99.90;;;;;;2121772;27;20103;-74
2020/12/08 00:03:47;;;;;;;37.17;17.02;;;3.50;99.90;;;;;;2121901;27;20015;-78
2020/12/08 00:04:47;;;;;;;31.80;15.73;;;3.60;99.90;;;;;;2121762;27;20075;-78
2020/12/08 00:05:48;;;;;;;30.75;14.50;;;3.50;99.90;;;;;;2112575;28;20051;-77
2020/12/08 00:06:48;;;;;;;30.95;16.25;;;3.50;99.90;;;;;;2112809;28;20060;-79
2020/12/08 00:07:50;;;;;;;27.23;15.85;;;3.50;99.90;;;;;;2112192;28;20028;-76
2020/12/08 00:08:51;;;;;;;20.73;13.13;;;3.50;99.90;;;;;;2104366;28;20028;-76
2020/12/08 00:09:51;;;;;;;29.88;15.18;;;3.50;99.90;;;;;;2112631;28;20028;-77
2020/12/08 00:10:52;;;;;;;27.00;15.95;;;3.50;99.90;;;;;;2121545;27;20023;-75
2020/12/08 00:11:52;;;;;;;22.10;12.45;;;3.50;99.90;;;;;;2112037;28;20016;-75
2020/12/08 00:12:53;;;;;;;21.58;13.70;;;3.50;99.90;;;;;;2104323;28;20087;-75
2020/12/08 00:13:54;;;;;;;19.50;12.45;;;3.40;99.90;;;;;;2103921;28;20031;-75
2020/12/08 00:14:55;;;;;;;20.70;12.73;;;3.40;99.90;;;;;;2112759;28;20051;-78
2020/12/08 00:15:55;;;;;;;24.48;14.35;;;3.40;99.90;;;;;;2112564;28;20019;-78
2020/12/08 00:16:56;;;;;;;24.77;14.85;;;3.40;99.90;;;;;;2112629;28;20024;-79
2020/12/08 00:17:56;;;;;;;24.95;14.43;;;3.40;99.90;;;;;;2103758;28;20472;-76
2020/12/08 00:18:57;;;;;;;19.67;12.68;;;3.40;99.90;;;;;;2104408;28;20071;-75
2020/12/08 00:19:58;;;;;;;22.55;12.82;;;3.40;99.90;;;;;;2103931;28;20385;-77
2020/12/08 00:20:58;;;;;;;28.90;14.73;;;3.40;99.90;;;;;;2112485;28;20472;-77
2020/12/08 00:21:59;;;;;;;21.30;13.13;;;3.40;99.90;;;;;;2121216;27;20027;-77
2020/12/08 00:22:59;;;;;;;26.35;15.45;;;3.30;99.90;;;;;;2121588;27;20084;-76
2020/12/08 00:24:00;;;;;;;21.20;15.02;;;3.30;99.90;;;;;;2112351;28;20016;-76
2020/12/08 00:25:03;;;;;;;20.88;13.48;;;3.30;99.90;;;;;;2112133;28;20070;-76
2020/12/08 00:26:04;;;;;;;20.40;13.00;;;3.30;99.90;;;;;;2121589;27;20455;-79
2020/12/08 00:27:07;;;;;;;17.42;12.90;;;3.30;99.90;;;;;;2112407;28;20024;-77
2020/12/08 00:28:08;;;;;;;17.73;12.30;;;3.30;99.90;;;;;;2112568;28;20124;-75
2020/12/08 00:29:09;;;;;;;18.55;12.45;;;3.30;99.90;;;;;;2112512;28;20355;-77
2020/12/08 00:30:12;;;;;;;15.88;11.27;;;3.20;99.90;;;;;;2112359;28;20024;-78
2020/12/08 00:31:13;;;;;;;16.67;11.73;;;3.20;99.90;;;;;;2121730;27;20498;-77
2020/12/08 00:32:13;;;;;;;16.45;11.80;;;3.20;99.90;;;;;;2121329;27;20027;-76
2020/12/08 00:33:14;;;;;;;17.35;12.13;;;3.20;99.90;;;;;;2121637;27;20105;-77
2020/12/08 00:34:14;;;;;;;15.55;11.40;;;3.20;99.90;;;;;;2121438;27;20371;-76
2020/12/08 00:35:16;;;;;;;15.63;11.90;;;3.20;99.90;;;;;;2121844;27;20023;-75
2020/12/08 00:36:17;;;;;;;17.67;12.05;;;3.20;99.90;;;;;;2121275;27;20027;-80
2020/12/08 00:37:17;;;;;;;15.05;10.95;;;3.20;99.90;;;;;;2121627;27;20467;-79
2020/12/08 00:38:18;;;;;;;13.95;10.80;;;3.10;99.90;;;;;;2122222;27;20023;-77
2020/12/08 00:39:18;;;;;;;15.95;11.25;;;3.20;99.90;;;;;;2121479;27;20038;-78
2020/12/08 00:40:19;;;;;;;14.50;10.98;;;3.20;99.90;;;;;;2121601;27;20038;-78
2020/12/08 00:41:21;;;;;;;15.20;11.95;;;3.10;99.90;;;;;;2121287;27;20023;-79
2020/12/08 00:42:22;;;;;;;16.45;11.38;;;3.10;99.90;;;;;;2112682;28;20507;-75
2020/12/08 00:43:22;;;;;;;13.93;10.73;;;3.10;99.90;;;;;;2103840;28;20028;-80
2020/12/08 00:44:23;;;;;;;15.98;11.02;;;3.10;99.90;;;;;;2103802;28;20047;-77
2020/12/08 00:45:24;;;;;;;13.95;10.70;;;3.10;99.90;;;;;;2104231;28;20052;-76
2020/12/08 00:46:24;;;;;;;13.75;10.90;;;3.10;99.90;;;;;;2103886;28;20526;-77
2020/12/08 00:47:25;;;;;;;14.52;11.02;;;3.10;99.90;;;;;;2103779;28;20484;-78
2020/12/08 00:48:25;;;;;;;14.52;10.38;;;3.10;99.90;;;;;;2112363;28;20047;-78
2020/12/08 00:49:26;;;;;;;12.93;10.88;;;3.10;99.90;;;;;;2111972;28;20458;-76
2020/12/08 00:50:27;;;;;;;13.93;10.60;;;3.10;99.90;;;;;;2112453;28;20016;-78
2020/12/08 00:51:27;;;;;;;13.70;10.18;;;3.10;99.90;;;;;;2121121;27;20026;-77
2020/12/08 00:52:28;;;;;;;13.70;11.10;;;3.10;99.90;;;;;;2121614;27;20461;-77
2020/12/08 00:53:29;;;;;;;13.18;11.00;;;3.10;99.90;;;;;;2121326;27;20428;-77
2020/12/08 00:54:29;;;;;;;13.55;10.52;;;3.10;99.90;;;;;;2121421;27;20563;-78
2020/12/08 00:55:30;;;;;;;14.73;10.75;;;3.10;99.90;;;;;;2121916;27;20049;-75
2020/12/08 00:56:31;;;;;;;17.95;11.35;;;3.10;99.90;;;;;;2112300;28;20084;-78
2020/12/08 00:57:32;;;;;;;13.20;11.57;;;3.00;99.90;;;;;;2112208;28;20024;-78
2020/12/08 00:58:32;;;;;;;14.00;11.85;;;3.00;99.90;;;;;;2121283;27;20038;-76
2020/12/08 00:59:33;;;;;;;14.13;11.88;;;3.00;99.90;;;;;;2121340;27;20050;-78
2020/12/08 01:00:33;;;;;;;16.13;12.23;;;3.00;99.90;;;;;;2121497;27;20154;-79
2020/12/08 01:01:35;;;;;;;18.85;11.93;;;3.00;99.90;;;;;;2111783;28;20055;-76
2020/12/08 01:02:36;;;;;;;14.18;12.07;;;3.00;99.90;;;;;;2112603;28;20414;-77
2020/12/08 01:03:37;;;;;;;14.20;12.07;;;3.00;99.90;;;;;;2121035;27;20100;-77
2020/12/08 01:04:37;;;;;;;15.48;12.50;;;3.00;99.90;;;;;;2112053;28;20027;-77
2020/12/08 01:05:38;;;;;;;14.30;12.05;;;3.00;99.90;;;;;;2112434;28;20024;-77
2020/12/08 01:06:39;;;;;;;15.60;12.07;;;2.90;99.90;;;;;;2121328;27;20524;-76
2020/12/08 01:07:40;;;;;;;14.93;12.55;;;2.90;99.90;;;;;;2112063;28;20072;-76
2020/12/08 01:08:41;;;;;;;14.63;12.52;;;2.90;99.90;;;;;;2112242;28;20128;-77
2020/12/08 01:09:41;;;;;;;15.02;12.35;;;2.90;99.90;;;;;;2112141;28;20106;-77
2020/12/08 01:10:42;;;;;;;16.00;13.00;;;3.00;99.90;;;;;;2112123;28;20020;-75
2020/12/08 01:11:43;;;;;;;14.52;11.90;;;3.00;99.90;;;;;;2111886;28;20055;-79
2020/12/08 01:12:44;;;;;;;14.45;12.38;;;3.00;99.90;;;;;;2121504;27;20031;-76
2020/12/08 01:13:45;;;;;;;16.08;12.77;;;3.00;99.90;;;;;;2121112;27;20050;-79
2020/12/08 01:14:45;;;;;;;14.68;12.07;;;3.00;99.90;;;;;;2112175;28;20024;-76
2020/12/08 01:15:47;;;;;;;14.43;12.07;;;3.00;99.90;;;;;;2112192;28;20019;-78
2020/12/08 01:16:47;;;;;;;14.50;12.38;;;3.00;99.90;;;;;;2121237;27;20024;-77
2020/12/08 01:17:48;;;;;;;15.85;11.65;;;3.00;99.90;;;;;;2121219;28;20027;-79
2020/12/08 01:18:48;;;;;;;13.52;11.73;;;3.10;99.90;;;;;;2121458;28;20030;-76
2020/12/08 01:19:50;;;;;;;12.88;11.27;;;3.10;99.90;;;;;;2121307;28;20104;-75
2020/12/08 01:20:50;;;;;;;13.80;11.90;;;3.10;99.90;;;;;;2121296;28;20093;-76
2020/12/08 01:21:52;;;;;;;13.02;10.88;;;3.10;99.90;;;;;;2120489;27;20120;-77
2020/12/08 01:22:52;;;;;;;14.75;11.23;;;3.10;99.90;;;;;;2121136;28;20047;-77
2020/12/08 01:23:53;;;;;;;12.52;10.57;;;3.10;99.90;;;;;;2112263;28;20020;-77
2020/12/08 01:24:53;;;;;;;16.52;12.52;;;3.10;99.90;;;;;;2112162;28;20027;-75
2020/12/08 01:25:54;;;;;;;13.48;11.25;;;3.10;99.90;;;;;;2121517;28;20038;-76
2020/12/08 01:26:58;;;;;;;12.90;11.38;;;3.20;99.90;;;;;;2121296;28;20019;-75
2020/12/08 01:27:59;;;;;;;13.13;10.88;;;3.20;99.90;;;;;;2112270;28;20597;-77
2020/12/08 01:28:59;;;;;;;13.80;11.95;;;3.20;99.90;;;;;;2112184;28;20019;-75
2020/12/08 01:30:00;;;;;;;15.05;11.50;;;3.20;99.90;;;;;;2121223;28;20402;-79
2020/12/08 01:31:01;;;;;;;12.35;10.98;;;3.20;99.90;;;;;;2112085;28;20127;-78
2020/12/08 01:32:04;;;;;;;14.82;11.60;;;3.20;99.90;;;;;;2111684;28;20016;-78
2020/12/08 01:33:04;;;;;;;12.20;10.13;;;3.20;99.90;;;;;;2111915;28;20107;-80
2020/12/08 01:34:07;;;;;;;14.40;11.27;;;3.20;99.90;;;;;;2112232;28;20371;-76
2020/12/08 01:35:07;;;;;;;13.82;11.10;;;3.20;99.90;;;;;;2121249;28;20071;-77
2020/12/08 01:36:08;;;;;;;13.90;10.75;;;3.20;99.90;;;;;;2112026;28;20525;-79
2020/12/08 01:37:09;;;;;;;13.73;11.57;;;3.20;99.90;;;;;;2112049;28;20361;-79
2020/12/08 01:38:10;;;;;;;15.55;11.70;;;3.30;99.90;;;;;;2112032;28;20066;-79
2020/12/08 01:39:10;;;;;;;13.70;10.73;;;3.30;99.90;;;;;;2111927;28;20016;-76
2020/12/08 01:40:11;;;;;;;11.95;10.70;;;3.30;99.90;;;;;;2111861;28;20031;-76
2020/12/08 01:41:12;;;;;;;13.80;10.45;;;3.30;99.90;;;;;;2112136;28;20019;-78
2020/12/08 01:42:12;;;;;;;11.57;10.38;;;3.30;99.90;;;;;;2120875;28;20023;-76
2020/12/08 01:43:13;;;;;;;13.23;11.15;;;3.30;99.90;;;;;;2111873;28;20028;-79
2020/12/08 01:44:15;;;;;;;15.02;10.55;;;3.30;99.90;;;;;;2112049;28;20039;-79
2020/12/08 01:45:15;;;;;;;12.32;10.80;;;3.30;99.90;;;;;;2121063;28;20023;-78
2020/12/08 01:46:31;;;;;;;12.52;10.20;;;3.30;99.90;;;;;;2121215;28;20026;-79
2020/12/08 01:47:33;;;;;;;13.25;11.07;;;3.30;99.90;;;;;;2112091;28;20164;-75
2020/12/08 01:48:33;;;;;;;12.02;10.50;;;3.30;99.90;;;;;;2112174;28;20080;-79
2020/12/08 01:49:34;;;;;;;11.95;10.60;;;3.30;99.90;;;;;;2112018;28;20020;-77
2020/12/08 01:50:34;;;;;;;13.40;10.77;;;3.30;99.90;;;;;;2103579;28;20503;-78
2020/12/08 01:51:38;;;;;;;12.18;9.88;;;3.30;99.90;;;;;;2111615;28;20107;-77
2020/12/08 01:52:38;;;;;;;12.55;10.40;;;3.30;99.90;;;;;;2112507;28;20020;-78
2020/12/08 01:53:39;;;;;;;11.48;10.30;;;3.30;99.90;;;;;;2111953;28;20051;-78
2020/12/08 01:54:41;;;;;;;12.95;11.13;;;3.30;99.90;;;;;;2111957;28;20077;-76
2020/12/08 01:55:41;;;;;;;13.23;11.25;;;3.30;99.90;;;;;;2121271;28;20055;-77
2020/12/08 01:56:42;;;;;;;13.05;11.25;;;3.30;99.90;;;;;;2121160;28;20398;-79
2020/12/08 01:57:43;;;;;;;15.05;10.40;;;3.30;99.90;;;;;;2120933;28;20304;-76
2020/12/08 01:58:44;;;;;;;12.15;10.68;;;3.30;99.90;;;;;;2121203;28;20505;-79
2020/12/08 01:59:44;;;;;;;12.23;10.90;;;3.40;99.90;;;;;;2121115;28;20019;-78
2020/12/08 02:00:45;;;;;;;12.40;11.10;;;3.40;99.90;;;;;;2121061;28;20076;-79
2020/12/08 02:01:48;;;;;;;13.88;11.40;;;3.40;99.90;;;;;;2111733;28;20027;-79
2020/12/08 02:02:48;;;;;;;11.98;10.68;;;3.40;99.90;;;;;;2112413;28;20019;-79
2020/12/08 02:03:49;;;;;;;13.18;11.32;;;3.40;99.90;;;;;;2120951;28;20360;-76
2020/12/08 02:04:50;;;;;;;14.27;11.05;;;3.40;99.90;;;;;;2120970;28;20470;-75
2020/12/08 02:05:50;;;;;;;12.73;10.85;;;3.40;99.90;;;;;;2121014;28;20027;-77
2020/12/08 02:06:51;;;;;;;12.77;11.48;;;3.40;99.90;;;;;;2121213;28;20019;-75
2020/12/08 02:07:51;;;;;;;14.48;11.60;;;3.40;99.90;;;;;;2111849;28;20012;-78
2020/12/08 02:08:52;;;;;;;13.70;10.90;;;3.40;99.90;;;;;;2112090;28;20039;-78
2020/12/08 02:09:53;;;;;;;13.05;11.57;;;3.40;99.90;;;;;;2120924;28;20043;-76
2020/12/08 02:10:53;;;;;;;15.05;11.95;;;3.50;99.90;;;;;;2120753;28;20031;-79
2020/12/08 02:11:54;;;;;;;14.55;11.48;;;3.50;99.90;;;;;;2120893;28;20034;-77
2020/12/08 02:12:54;;;;;;;12.50;11.20;;;3.50;99.90;;;;;;2111642;28;20019;-77
2020/12/08 02:13:55;;;;;;;13.80;11.63;;;3.50;99.90;;;;;;2103824;28;20020;-76
2020/12/08 02:14:55;;;;;;;12.57;11.27;;;3.50;99.90;;;;;;2111706;28;20190;-76
2020/12/08 02:15:56;;;;;;;14.07;12.05;;;3.50;99.90;;;;;;2121080;28;20015;-77
2020/12/08 02:16:57;;;;;;;13.55;12.15;;;3.50;99.90;;;;;;2120832;28;20356;-78
2020/12/08 02:17:58;;;;;;;12.73;11.23;;;3.50;99.90;;;;;;2111971;28;20268;-77
2020/12/08 02:18:58;;;;;;;13.65;12.25;;;3.50;99.90;;;;;;2111813;28;20024;-78
2020/12/08 02:19:59;;;;;;;14.70;12.45;;;3.50;99.90;;;;;;2120989;28;20137;-75
2020/12/08 02:21:03;;;;;;;13.35;11.98;;;3.50;99.90;;;;;;2120950;28;20019;-79
2020/12/08 02:22:04;;;;;;;14.43;12.07;;;3.50;99.90;;;;;;2120743;28;20110;-78
2020/12/08 02:23:04;;;;;;;14.80;12.82;;;3.50;99.90;;;;;;2120897;28;20034;-80
2020/12/08 02:24:06;;;;;;;14.23;12.65;;;3.50;99.90;;;;;;2121048;28;20015;-79
2020/12/08 02:25:06;;;;;;;15.52;13.50;;;3.50;99.90;;;;;;2120966;28;20062;-75
2020/12/08 02:26:07;;;;;;;14.85;13.25;;;3.50;99.90;;;;;;2121074;28;20501;-79
2020/12/08 02:27:08;;;;;;;14.70;12.88;;;3.50;99.90;;;;;;2120878;28;20396;-77
2020/12/08 02:28:08;;;;;;;18.55;13.65;;;3.60;99.90;;;;;;2111793;28;20023;-79
2020/12/08 02:29:10;;;;;;;17.60;13.65;;;3.60;99.90;;;;;;2111838;28;20088;-76
2020/12/08 02:30:10;;;;;;;17.35;13.40;;;3.60;99.90;;;;;;2121184;28;20015;-79
2020/12/08 02:31:11;;;;;;;15.98;12.82;;;3.60;99.90;;;;;;2111684;28;20128;-80
2020/12/08 02:32:11;;;;;;;15.20;13.60;;;3.60;99.90;;;;;;2111906;28;20059;-79
2020/12/08 02:33:12;;;;;;;15.95;14.20;;;3.60;99.90;;;;;;2111757;28;20035;-80
2020/12/08 02:34:13;;;;;;;14.68;13.18;;;3.60;99.90;;;;;;2112392;28;20016;-79
2020/12/08 02:35:13;;;;;;;16.80;13.50;;;3.60;99.90;;;;;;2122445;27;20047;-76
2020/12/08 02:36:14;;;;;;;17.20;14.20;;;3.60;99.90;;;;;;2113465;28;20161;-75
2020/12/08 02:37:14;;;;;;;16.45;13.45;;;3.60;99.90;;;;;;2104779;28;20012;-76
2020/12/08 02:38:15;;;;;;;15.43;13.82;;;3.60;99.90;;;;;;2105047;28;20016;-79
2020/12/08 02:39:15;;;;;;;15.82;14.10;;;3.60;99.90;;;;;;2113098;28;20024;-76
2020/12/08 02:40:16;;;;;;;18.85;14.77;;;3.60;99.90;;;;;;2122666;27;20411;-78
2020/12/08 02:41:16;;;;;;;15.65;13.77;;;3.60;99.90;;;;;;2122592;27;20050;-77
2020/12/08 02:42:18;;;;;;;15.43;13.75;;;3.60;99.90;;;;;;2121946;27;20038;-77
2020/12/08 02:43:20;;;;;;;15.02;13.30;;;3.60;99.90;;;;;;2122368;27;20531;-78
2020/12/08 02:44:21;;;;;;;17.08;14.95;;;3.60;99.90;;;;;;2122284;27;20030;-78
2020/12/08 02:45:21;;;;;;;19.08;14.35;;;3.60;99.90;;;;;;2113384;28;20043;-77
2020/12/08 02:46:22;;;;;;;16.02;14.15;;;3.70;99.90;;;;;;2104761;28;20074;-77
2020/12/08 02:47:23;;;;;;;16.65;14.43;;;3.70;99.90;;;;;;2113444;28;20257;-79
2020/12/08 02:48:23;;;;;;;17.65;15.20;;;3.70;99.90;;;;;;2122685;27;20487;-79
2020/12/08 02:49:24;;;;;;;18.23;15.20;;;3.70;99.90;;;;;;2122311;27;20027;-78
2020/12/08 02:50:25;;;;;;;16.00;14.23;;;3.70;99.90;;;;;;2112977;28;20114;-78
2020/12/08 02:51:25;;;;;;;19.17;15.15;;;3.70;99.90;;;;;;2104315;28;20032;-78
2020/12/08 02:52:26;;;;;;;17.52;15.13;;;3.70;99.90;;;;;;2113246;28;20031;-77
2020/12/08 02:53:26;;;;;;;18.60;15.65;;;3.70;99.90;;;;;;2113264;28;20120;-76
2020/12/08 02:54:27;;;;;;;18.05;15.75;;;3.70;99.90;;;;;;2113356;28;20054;-79
2020/12/08 02:55:27;;;;;;;16.35;14.68;;;3.70;99.90;;;;;;2122196;27;20020;-78
2020/12/08 02:56:28;;;;;;;16.85;14.95;;;3.70;99.90;;;;;;2112982;28;20039;-77
2020/12/08 02:57:28;;;;;;;19.65;16.08;;;3.70;99.90;;;;;;2102915;28;20048;-77
2020/12/08 02:58:29;;;;;;;18.98;16.00;;;3.70;99.90;;;;;;2112258;28;20073;-78
2020/12/08 02:59:29;;;;;;;18.50;15.55;;;3.70;99.90;;;;;;2122193;27;20038;-77
2020/12/08 03:00:30;;;;;;;16.63;14.90;;;3.80;99.90;;;;;;2113164;28;20024;-77
2020/12/08 03:01:30;;;;;;;17.88;15.93;;;3.80;99.90;;;;;;2104973;28;20534;-78
2020/12/08 03:02:31;;;;;;;18.55;16.55;;;3.80;99.90;;;;;;2113809;28;20051;-76
2020/12/08 03:03:31;;;;;;;19.00;15.88;;;3.80;99.90;;;;;;2113888;28;20031;-76
2020/12/08 03:04:32;;;;;;;17.83;15.85;;;3.80;99.90;;;;;;2113934;28;20027;-80
2020/12/08 03:05:33;;;;;;;19.95;15.88;;;3.80;99.90;;;;;;2123116;27;20030;-78
2020/12/08 03:06:33;;;;;;;20.88;16.83;;;3.80;99.90;;;;;;2113501;28;20028;-76
2020/12/08 03:07:34;;;;;;;19.08;15.93;;;3.80;99.90;;;;;;2114002;28;20395;-77
2020/12/08 03:08:34;;;;;;;18.10;16.15;;;3.70;99.90;;;;;;2123047;27;20402;-78
2020/12/08 03:09:35;;;;;;;16.88;15.07;;;3.80;99.90;;;;;;2113832;28;20128;-76
2020/12/08 03:10:35;;;;;;;18.30;15.52;;;3.80;99.90;;;;;;2113953;28;20027;-79
2020/12/08 03:11:36;;;;;;;17.17;15.48;;;3.80;99.90;;;;;;2122846;27;20019;-79
2020/12/08 03:12:37;;;;;;;18.25;15.68;;;3.80;99.90;;;;;;2122684;27;20023;-78
2020/12/08 03:13:37;;;;;;;20.63;15.85;;;3.80;99.90;;;;;;2123285;27;20460;-75
2020/12/08 03:14:38;;;;;;;20.13;15.48;;;3.80;99.90;;;;;;2113552;28;20097;-80
2020/12/08 03:15:39;;;;;;;18.15;15.75;;;3.90;99.90;;;;;;2105434;28;20513;-80
2020/12/08 03:16:39;;;;;;;17.90;15.98;;;3.80;99.90;;;;;;2113991;28;20058;-79
2020/12/08 03:17:40;;;;;;;19.80;16.50;;;3.80;99.90;;;;;;2122776;27;20027;-76
2020/12/08 03:18:41;;;;;;;19.10;16.17;;;3.80;99.90;;;;;;2122711;27;20072;-78
2020/12/08 03:19:42;;;;;;;17.33;14.90;;;3.90;99.90;;;;;;2122986;27;20012;-79
2020/12/08 03:20:42;;;;;;;17.08;15.20;;;3.90;99.90;;;;;;2122853;27;20261;-79
2020/12/08 03:21:43;;;;;;;19.15;15.52;;;3.80;99.90;;;;;;2122474;27;20054;-80
2020/12/08 03:22:44;;;;;;;17.13;15.32;;;3.90;99.90;;;;;;2113450;28;20062;-79
2020/12/08 03:23:44;;;;;;;18.73;15.93;;;3.90;99.90;;;;;;2105300;28;20024;-79
2020/12/08 03:24:48;;;;;;;19.30;16.25;;;3.90;99.90;;;;;;2113497;28;20065;-78
2020/12/08 03:25:49;;;;;;;18.98;16.00;;;3.90;99.90;;;;;;2114208;27;20463;-76
2020/12/08 03:26:49;;;;;;;18.75;15.75;;;3.90;99.90;;;;;;2113541;28;20019;-78
2020/12/08 03:27:50;;;;;;;17.33;15.32;;;3.80;99.90;;;;;;2113761;28;20058;-76
2020/12/08 03:28:51;;;;;;;18.15;15.98;;;3.80;99.90;;;;;;2122515;27;20070;-78
2020/12/08 03:29:52;;;;;;;19.35;16.65;;;3.80;99.90;;;;;;2122978;27;20019;-76
2020/12/08 03:30:52;;;;;;;18.38;15.85;;;3.80;99.90;;;;;;2122678;27;20463;-79
2020/12/08 03:31:53;;;;;;;18.27;15.02;;;3.80;99.90;;;;;;2113302;28;20031;-78
2020/12/08 03:32:53;;;;;;;17.95;15.73;;;3.80;99.90;;;;;;2113618;28;20065;-79
2020/12/08 03:33:54;;;;;;;21.17;16.08;;;3.80;99.90;;;;;;2113727;28;20092;-77
2020/12/08 03:34:54;;;;;;;20.70;15.45;;;3.80;99.90;;;;;;2113386;28;20150;-76
2020/12/08 03:35:55;;;;;;;18.58;15.60;;;3.80;99.90;;;;;;2113360;28;20582;-76
2020/12/08 03:36:55;;;;;;;18.90;15.95;;;3.80;99.90;;;;;;2122309;27;20518;-77
2020/12/08 03:37:56;;;;;;;19.05;15.82;;;3.80;99.90;;;;;;2122321;27;20110;-79
2020/12/08 03:38:58;;;;;;;18.77;15.57;;;3.80;99.90;;;;;;2122425;27;20022;-80
2020/12/08 03:39:58;;;;;;;19.40;15.88;;;3.80;99.90;;;;;;2113477;28;20481;-77
2020/12/08 03:40:59;;;;;;;18.15;16.20;;;3.80;99.90;;;;;;2113661;28;20036;-78
2020/12/08 03:42:03;;;;;;;19.50;15.95;;;3.80;99.90;;;;;;2112954;28;20019;-79
2020/12/08 03:43:03;;;;;;;17.08;15.27;;;3.80;99.90;;;;;;2114243;27;20607;-79
2020/12/08 03:44:04;;;;;;;18.67;16.63;;;3.80;99.90;;;;;;2122661;27;20027;-77
2020/12/08 03:45:05;;;;;;;20.52;16.13;;;3.80;99.90;;;;;;2112838;28;20028;-79
2020/12/08 03:46:05;;;;;;;18.90;16.63;;;3.80;99.90;;;;;;2113619;28;20065;-78
2020/12/08 03:47:06;;;;;;;19.95;16.95;;;3.80;99.90;;;;;;2122685;27;20386;-81
2020/12/08 03:48:06;;;;;;;17.38;15.43;;;3.80;99.90;;;;;;2122634;27;20057;-75
2020/12/08 03:49:07;;;;;;;20.02;17.10;;;3.80;99.90;;;;;;2122583;27;20023;-76
2020/12/08 03:50:07;;;;;;;20.27;17.50;;;3.80;99.90;;;;;;2113247;28;20027;-77
2020/12/08 03:51:12;;;;;;;19.60;16.15;;;3.80;99.90;;;;;;2113556;28;20299;-77
2020/12/08 03:52:12;;;;;;;19.30;16.70;;;3.80;99.90;;;;;;2122306;27;20031;-79
2020/12/08 03:53:13;;;;;;;17.98;16.08;;;3.80;99.90;;;;;;2122640;27;20023;-79
2020/12/08 03:54:14;;;;;;;18.65;16.50;;;3.80;99.90;;;;;;2122579;27;20047;-77
2020/12/08 03:55:14;;;;;;;19.45;16.45;;;3.80;99.90;;;;;;2122691;27;20040;-77
2020/12/08 03:56:17;;;;;;;18.20;15.63;;;3.80;99.90;;;;;;2113349;28;20379;-77
2020/12/08 03:57:18;;;;;;;21.10;17.17;;;3.80;99.90;;;;;;2105117;28;20094;-77
2020/12/08 03:58:18;;;;;;;19.30;16.88;;;3.80;99.90;;;;;;2113402;28;20618;-78
2020/12/08 03:59:19;;;;;;;21.60;17.48;;;3.90;99.90;;;;;;2122621;27;20054;-78
2020/12/08 04:00:20;;;;;;;20.05;16.95;;;3.90;99.90;;;;;;2113457;28;20475;-78
2020/12/08 04:01:22;;;;;;;18.90;16.17;;;3.90;99.90;;;;;;2113120;28;20028;-77
2020/12/08 04:02:22;;;;;;;20.52;17.58;;;3.90;99.90;;;;;;2112857;28;20027;-77
2020/12/08 04:03:23;;;;;;;20.27;17.05;;;3.90;99.90;;;;;;2121872;27;20027;-80
2020/12/08 04:04:24;;;;;;;19.73;16.98;;;3.90;99.90;;;;;;2121884;27;20034;-79
2020/12/08 04:05:25;;;;;;;20.60;16.08;;;3.90;99.90;;;;;;2112910;28;20054;-78
2020/12/08 04:06:26;;;;;;;18.65;16.73;;;3.90;99.90;;;;;;2112764;28;20081;-81
2020/12/08 04:07:26;;;;;;;21.60;16.33;;;3.90;99.90;;;;;;2112415;28;20076;-76
2020/12/08 04:08:27;;;;;;;19.38;16.85;;;3.90;99.90;;;;;;2104382;28;20024;-75
2020/12/08 04:09:27;;;;;;;17.83;16.02;;;3.90;99.90;;;;;;2112831;28;20031;-78
2020/12/08 04:10:28;;;;;;;21.23;17.75;;;4.00;99.90;;;;;;2121764;27;20060;-76
2020/12/08 04:11:28;;;;;;;19.90;17.20;;;4.00;99.90;;;;;;2111765;28;20062;-78
2020/12/08 04:12:29;;;;;;;19.23;16.83;;;4.00;99.90;;;;;;2112833;28;20023;-78
2020/12/08 04:13:29;;;;;;;22.75;17.75;;;4.00;99.90;;;;;;2121598;27;20502;-77
2020/12/08 04:14:30;;;;;;;18.23;15.43;;;4.00;99.90;;;;;;2121635;27;20081;-78
2020/12/08 04:15:30;;;;;;;20.40;17.08;;;4.00;99.90;;;;;;2121731;27;20359;-78
2020/12/08 04:16:32;;;;;;;23.38;17.25;;;4.00;99.90;;;;;;2121865;27;20116;-78
2020/12/08 04:17:33;;;;;;;19.25;17.15;;;4.00;99.90;;;;;;2121545;27;20023;-76
2020/12/08 04:18:33;;;;;;;19.35;16.88;;;4.00;99.90;;;;;;2121675;27;20081;-78
2020/12/08 04:19:34;;;;;;;24.33;17.92;;;4.10;99.90;;;;;;2112417;28;20050;-79
2020/12/08 04:20:34;;;;;;;18.83;16.75;;;4.10;99.90;;;;;;2112619;28;20392;-79
2020/12/08 04:21:35;;;;;;;21.27;17.17;;;4.10;99.90;;;;;;2121272;27;20027;-78
2020/12/08 04:22:35;;;;;;;20.52;17.00;;;4.10;99.90;;;;;;2121682;27;20030;-79
2020/12/08 04:23:36;;;;;;;22.30;17.88;;;4.10;99.90;;;;;;2121615;27;20051;-79
2020/12/08 04:24:36;;;;;;;19.35;16.95;;;4.10;99.90;;;;;;2121685;27;20055;-79
2020/12/08 04:25:37;;;;;;;19.52;17.15;;;4.10;99.90;;;;;;2121712;27;20073;-79
2020/12/08 04:26:38;;;;;;;19.40;17.25;;;4.10;99.90;;;;;;2121634;27;20046;-77
2020/12/08 04:27:38;;;;;;;20.23;17.38;;;4.10;99.90;;;;;;2121270;27;20531;-76
2020/12/08 04:28:39;;;;;;;21.50;16.60;;;4.10;99.90;;;;;;2121567;27;20505;-77
2020/12/08 04:29:39;;;;;;;22.02;18.70;;;4.10;99.90;;;;;;2121395;27;20042;-79
2020/12/08 04:30:40;;;;;;;26.42;18.35;;;4.10;99.90;;;;;;2121424;27;20016;-76
2020/12/08 04:31:40;;;;;;;22.95;18.50;;;4.20;99.90;;;;;;2121274;27;20072;-77
2020/12/08 04:32:41;;;;;;;22.15;18.02;;;4.20;99.90;;;;;;2112403;28;20035;-77
2020/12/08 04:33:43;;;;;;;21.25;17.52;;;4.20;99.90;;;;;;2103995;28;20121;-77
2020/12/08 04:34:43;;;;;;;22.13;18.08;;;4.20;99.90;;;;;;2104075;28;20361;-78
2020/12/08 04:35:44;;;;;;;21.08;17.73;;;4.20;99.90;;;;;;2103771;28;20063;-78
2020/12/08 04:36:44;;;;;;;19.67;17.45;;;4.20;99.90;;;;;;2112581;28;20016;-76
2020/12/08 04:37:45;;;;;;;20.45;17.63;;;4.20;99.90;;;;;;2121276;27;20112;-76
2020/12/08 04:38:46;;;;;;;23.13;18.25;;;4.20;99.90;;;;;;2121602;27;20048;-78
2020/12/08 04:39:46;;;;;;;21.08;17.52;;;4.20;99.90;;;;;;2121363;27;20411;-82
2020/12/08 04:40:48;;;;;;;23.00;18.65;;;4.20;99.90;;;;;;2121523;27;20421;-82
2020/12/08 04:41:53;;;;;;;22.15;18.50;;;4.20;99.90;;;;;;2120970;27;20394;-76
2020/12/08 04:42:54;;;;;;;21.15;17.92;;;4.20;99.90;;;;;;2121059;27;20473;-82
2020/12/08 04:43:55;;;;;;;20.65;16.85;;;4.20;99.90;;;;;;2112344;28;20023;-80
2020/12/08 04:44:58;;;;;;;21.25;17.77;;;4.20;99.90;;;;;;2103953;28;20020;-80
2020/12/08 04:45:59;;;;;;;20.77;18.25;;;4.20;99.90;;;;;;2112603;28;20024;-77
2020/12/08 04:47:04;;;;;;;21.20;18.30;;;4.20;99.90;;;;;;2121213;27;20041;-78
2020/12/08 04:48:06;;;;;;;25.40;18.40;;;4.20;99.90;;;;;;2121231;27;20360;-79
2020/12/08 04:49:07;;;;;;;20.85;17.55;;;4.30;99.90;;;;;;2121507;27;20366;-81
2020/12/08 04:50:08;;;;;;;20.58;17.58;;;4.30;99.90;;;;;;2121218;27;20039;-80
2020/12/08 04:51:08;;;;;;;20.58;17.13;;;4.30;99.90;;;;;;2112197;28;20024;-77
2020/12/08 04:52:11;;;;;;;20.10;17.90;;;4.30;99.90;;;;;;2103611;28;20388;-80
2020/12/08 04:53:12;;;;;;;19.70;17.33;;;4.30;99.90;;;;;;2112445;28;20020;-79
2020/12/08 04:54:12;;;;;;;21.40;17.75;;;4.30;99.90;;;;;;2121270;27;20099;-78
2020/12/08 04:55:13;;;;;;;22.00;17.85;;;4.30;99.90;;;;;;2121642;27;20021;-80
2020/12/08 04:56:14;;;;;;;21.52;19.25;;;4.30;99.90;;;;;;2111976;28;20068;-80
2020/12/08 04:57:15;;;;;;;20.65;17.67;;;4.30;99.90;;;;;;2111376;28;20011;-81
2020/12/08 04:58:17;;;;;;;19.55;16.65;;;4.30;99.90;;;;;;2121303;27;20022;-78
2020/12/08 04:59:21;;;;;;;21.25;18.13;;;4.30;99.90;;;;;;2121049;27;20386;-77
2020/12/08 05:00:22;;;;;;;23.40;17.63;;;4.30;99.90;;;;;;2112166;28;20118;-80
2020/12/08 05:01:26;;;;;;;24.17;17.55;;;4.30;99.90;;;;;;2111826;28;20019;-80
2020/12/08 05:02:27;;;;;;;22.33;18.08;;;4.30;99.90;;;;;;2112517;28;20201;-78
2020/12/08 05:03:30;;;;;;;19.70;17.15;;;4.30;99.90;;;;;;2112073;28;20072;-80
2020/12/08 05:04:31;;;;;;;22.50;18.40;;;4.30;99.90;;;;;;2112050;28;20027;-81
2020/12/08 05:05:41;;;;;;;22.80;18.48;;;4.40;99.90;;;;;;2112459;28;20171;-77
2020/12/08 05:06:42;;;;;;;19.67;17.55;;;4.40;99.90;;;;;;2121643;27;20019;-81
2020/12/08 05:07:43;;;;;;;20.27;16.65;;;4.40;99.90;;;;;;2120867;27;20497;-81
2020/12/08 05:08:44;;;;;;;22.10;17.67;;;4.40;99.90;;;;;;2121103;27;20031;-78
2020/12/08 05:09:45;;;;;;;21.30;17.58;;;4.40;99.90;;;;;;2121370;27;20042;-80
2020/12/08 05:10:47;;;;;;;20.83;18.05;;;4.40;99.90;;;;;;2121082;27;20023;-79
2020/12/08 05:11:47;;;;;;;20.27;17.50;;;4.40;99.90;;;;;;2120898;27;20527;-82
2020/12/08 05:12:49;;;;;;;19.38;17.27;;;4.40;99.90;;;;;;2112126;28;20149;-79